sensor_id;sensor_type;location;lat;lon;timestamp;P1;durP1;ratioP1;P2;durP2;ratioP2
23322;SDS011;11833;52.554;13.554;2023-02-28T01:03:08;5.90;;;2.83;;
23322;SDS011;11833;52.554;13.554;2023-02-28T01:05:34;5.75;;;2.53;;
23322;SDS011;11833;52.554;13.554;2023-02-28T01:08:00;9.98;;;2.88;;
23322;SDS011;11833;52.554;13.554;2023-02-28T01:10:25;5.75;;;2.97;;
23322;SDS011;11833;52.554;13.554;2023-02-28T01:12:56;5.00;;;2.72;;
23322;SDS011;11833;52.554;13.554;2023-02-28T01:15:22;5.93;;;2.95;;
23322;SDS011;11833;52.554;13.554;2023-02-28T01:17:48;6.53;;;2.65;;
23322;SDS011;11833;52.554;13.554;2023-02-28T01:20:13;4.97;;;2.70;;
23322;SDS011;11833;52.554;13.554;2023-02-28T01:22:39;4.80;;;2.85;;
23322;SDS011;11833;52.554;13.554;2023-02-28T01:25:05;6.05;;;2.92;;
23322;SDS011;11833;52.554;13.554;2023-02-28T01:27:31;5.47;;;2.83;;
23322;SDS011;11833;52.554;13.554;2023-02-28T01:29:58;6.00;;;2.83;;
23322;SDS011;11833;52.554;13.554;2023-02-28T01:32:24;6.70;;;3.50;;
23322;SDS011;11833;52.554;13.554;2023-02-28T01:34:49;3.67;;;2.42;;
23322;SDS011;11833;52.554;13.554;2023-02-28T01:37:15;5.38;;;2.85;;
23322;SDS011;11833;52.554;13.554;2023-02-28T01:39:41;3.72;;;2.53;;
23322;SDS011;11833;52.554;13.554;2023-02-28T01:42:08;4.40;;;3.10;;
23322;SDS011;11833;52.554;13.554;2023-02-28T01:47:45;7.45;;;3.70;;
23322;SDS011;11833;52.554;13.554;2023-02-28T01:50:14;7.30;;;3.53;;
23322;SDS011;11833;52.554;13.554;2023-02-28T01:52:49;5.00;;;3.13;;
23322;SDS011;11833;52.554;13.554;2023-02-28T01:55:16;5.60;;;3.53;;
23322;SDS011;11833;52.554;13.554;2023-02-28T01:57:48;4.75;;;2.90;;
23322;SDS011;11833;52.554;13.554;2023-02-28T02:00:18;5.97;;;3.00;;
23322;SDS011;11833;52.554;13.554;2023-02-28T02:02:49;7.13;;;3.47;;
23322;SDS011;11833;52.554;13.554;2023-02-28T02:05:30;7.45;;;3.10;;
23322;SDS011;11833;52.554;13.554;2023-02-28T02:07:57;7.00;;;3.00;;
23322;SDS011;11833;52.554;13.554;2023-02-28T02:16:10;8.75;;;3.70;;
23322;SDS011;11833;52.554;13.554;2023-02-28T02:31:56;5.43;;;3.40;;
23322;SDS011;11833;52.554;13.554;2023-02-28T02:34:48;5.35;;;3.17;;
23322;SDS011;11833;52.554;13.554;2023-02-28T02:37:59;5.25;;;3.10;;
23322;SDS011;11833;52.554;13.554;2023-02-28T02:40:38;8.20;;;3.85;;
23322;SDS011;11833;52.554;13.554;2023-02-28T02:43:46;8.15;;;3.38;;
23322;SDS011;11833;52.554;13.554;2023-02-28T02:46:24;7.30;;;3.65;;
23322;SDS011;11833;52.554;13.554;2023-02-28T02:48:56;6.25;;;3.80;;
23322;SDS011;11833;52.554;13.554;2023-02-28T02:51:25;9.98;;;4.57;;
23322;SDS011;11833;52.554;13.554;2023-02-28T02:54:12;7.97;;;3.90;;
23322;SDS011;11833;52.554;13.554;2023-02-28T02:56:44;8.13;;;3.88;;
23322;SDS011;11833;52.554;13.554;2023-02-28T02:59:13;7.38;;;4.18;;
23322;SDS011;11833;52.554;13.554;2023-02-28T03:01:46;8.35;;;3.67;;
23322;SDS011;11833;52.554;13.554;2023-02-28T03:04:23;5.95;;;3.55;;
23322;SDS011;11833;52.554;13.554;2023-02-28T03:06:53;6.75;;;3.88;;
23322;SDS011;11833;52.554;13.554;2023-02-28T03:09:23;6.78;;;4.03;;
23322;SDS011;11833;52.554;13.554;2023-02-28T03:11:50;8.38;;;3.88;;
23322;SDS011;11833;52.554;13.554;2023-02-28T03:14:29;6.28;;;3.50;;
23322;SDS011;11833;52.554;13.554;2023-02-28T03:17:20;7.32;;;3.67;;
23322;SDS011;11833;52.554;13.554;2023-02-28T03:20:32;7.28;;;3.58;;
23322;SDS011;11833;52.554;13.554;2023-02-28T03:23:48;5.60;;;3.60;;
23322;SDS011;11833;52.554;13.554;2023-02-28T03:26:25;6.03;;;3.92;;
23322;SDS011;11833;52.554;13.554;2023-02-28T03:29:03;5.57;;;3.47;;
23322;SDS011;11833;52.554;13.554;2023-02-28T03:31:54;10.65;;;4.88;;
23322;SDS011;11833;52.554;13.554;2023-02-28T03:34:34;5.43;;;3.88;;
23322;SDS011;11833;52.554;13.554;2023-02-28T03:37:05;7.97;;;3.75;;
23322;SDS011;11833;52.554;13.554;2023-02-28T03:39:39;9.57;;;4.03;;
23322;SDS011;11833;52.554;13.554;2023-02-28T03:42:14;5.90;;;3.35;;
23322;SDS011;11833;52.554;13.554;2023-02-28T03:44:45;6.00;;;4.20;;
23322;SDS011;11833;52.554;13.554;2023-02-28T03:50:00;11.25;;;5.18;;
23322;SDS011;11833;52.554;13.554;2023-02-28T03:52:34;8.32;;;4.00;;
23322;SDS011;11833;52.554;13.554;2023-02-28T03:55:07;7.38;;;3.90;;
23322;SDS011;11833;52.554;13.554;2023-02-28T04:00:12;6.90;;;3.90;;
23322;SDS011;11833;52.554;13.554;2023-02-28T04:02:55;8.07;;;3.75;;
23322;SDS011;11833;52.554;13.554;2023-02-28T04:05:21;10.07;;;4.38;;
23322;SDS011;11833;52.554;13.554;2023-02-28T04:07:48;5.68;;;3.40;;
23322;SDS011;11833;52.554;13.554;2023-02-28T04:10:14;6.28;;;3.75;;
23322;SDS011;11833;52.554;13.554;2023-02-28T04:12:41;5.82;;;3.28;;
23322;SDS011;11833;52.554;13.554;2023-02-28T04:15:07;7.03;;;4.05;;
23322;SDS011;11833;52.554;13.554;2023-02-28T04:17:33;7.38;;;3.80;;
23322;SDS011;11833;52.554;13.554;2023-02-28T04:19:59;5.38;;;4.13;;
23322;SDS011;11833;52.554;13.554;2023-02-28T04:22:24;7.47;;;3.70;;
23322;SDS011;11833;52.554;13.554;2023-02-28T04:24:52;7.63;;;3.72;;
23322;SDS011;11833;52.554;13.554;2023-02-28T04:27:19;4.50;;;3.50;;
23322;SDS011;11833;52.554;13.554;2023-02-28T04:29:46;6.97;;;4.68;;
23322;SDS011;11833;52.554;13.554;2023-02-28T04:32:12;10.23;;;3.95;;
23322;SDS011;11833;52.554;13.554;2023-02-28T04:34:38;6.60;;;3.72;;
23322;SDS011;11833;52.554;13.554;2023-02-28T04:37:04;6.88;;;3.63;;
23322;SDS011;11833;52.554;13.554;2023-02-28T04:39:34;7.93;;;3.47;;
23322;SDS011;11833;52.554;13.554;2023-02-28T04:42:03;6.30;;;4.07;;
23322;SDS011;11833;52.554;13.554;2023-02-28T04:44:29;10.48;;;4.07;;
23322;SDS011;11833;52.554;13.554;2023-02-28T04:46:55;6.13;;;3.72;;
23322;SDS011;11833;52.554;13.554;2023-02-28T04:49:20;8.15;;;4.22;;
23322;SDS011;11833;52.554;13.554;2023-02-28T04:51:46;10.27;;;4.10;;
23322;SDS011;11833;52.554;13.554;2023-02-28T04:54:12;7.97;;;4.07;;
23322;SDS011;11833;52.554;13.554;2023-02-28T04:56:38;7.10;;;3.95;;
23322;SDS011;11833;52.554;13.554;2023-02-28T04:59:04;6.13;;;4.18;;
23322;SDS011;11833;52.554;13.554;2023-02-28T05:01:31;6.03;;;4.18;;
23322;SDS011;11833;52.554;13.554;2023-02-28T05:03:58;7.63;;;4.78;;
23322;SDS011;11833;52.554;13.554;2023-02-28T05:06:27;9.07;;;4.30;;
23322;SDS011;11833;52.554;13.554;2023-02-28T05:08:55;7.45;;;4.70;;
23322;SDS011;11833;52.554;13.554;2023-02-28T05:11:22;6.13;;;4.30;;
23322;SDS011;11833;52.554;13.554;2023-02-28T05:13:53;10.15;;;4.70;;
23322;SDS011;11833;52.554;13.554;2023-02-28T05:16:20;8.93;;;4.18;;
23322;SDS011;11833;52.554;13.554;2023-02-28T05:18:46;7.60;;;4.18;;
23322;SDS011;11833;52.554;13.554;2023-02-28T05:21:22;7.88;;;4.40;;
23322;SDS011;11833;52.554;13.554;2023-02-28T05:24:09;8.68;;;4.75;;
23322;SDS011;11833;52.554;13.554;2023-02-28T05:26:37;8.82;;;4.18;;
23322;SDS011;11833;52.554;13.554;2023-02-28T05:29:07;9.55;;;4.60;;
23322;SDS011;11833;52.554;13.554;2023-02-28T05:31:33;8.73;;;4.72;;
23322;SDS011;11833;52.554;13.554;2023-02-28T05:34:00;7.03;;;4.30;;
23322;SDS011;11833;52.554;13.554;2023-02-28T05:36:26;10.55;;;5.43;;
23322;SDS011;11833;52.554;13.554;2023-02-28T05:38:52;8.18;;;4.70;;
23322;SDS011;11833;52.554;13.554;2023-02-28T05:41:18;10.15;;;4.70;;
23322;SDS011;11833;52.554;13.554;2023-02-28T05:43:45;9.82;;;4.70;;
23322;SDS011;11833;52.554;13.554;2023-02-28T05:46:11;11.57;;;4.82;;
23322;SDS011;11833;52.554;13.554;2023-02-28T05:48:38;12.25;;;6.10;;
23322;SDS011;11833;52.554;13.554;2023-02-28T05:51:06;9.68;;;5.00;;
23322;SDS011;11833;52.554;13.554;2023-02-28T05:53:33;8.65;;;4.32;;
23322;SDS011;11833;52.554;13.554;2023-02-28T05:56:00;11.15;;;4.78;;
23322;SDS011;11833;52.554;13.554;2023-02-28T05:58:26;11.15;;;5.15;;
23322;SDS011;11833;52.554;13.554;2023-02-28T06:00:55;8.60;;;5.25;;
23322;SDS011;11833;52.554;13.554;2023-02-28T06:03:22;16.80;;;8.40;;
23322;SDS011;11833;52.554;13.554;2023-02-28T06:05:48;20.48;;;9.57;;
23322;SDS011;11833;52.554;13.554;2023-02-28T06:08:15;10.50;;;5.57;;
23322;SDS011;11833;52.554;13.554;2023-02-28T06:10:41;8.52;;;4.97;;
23322;SDS011;11833;52.554;13.554;2023-02-28T06:13:07;10.05;;;5.82;;
23322;SDS011;11833;52.554;13.554;2023-02-28T06:15:32;8.40;;;5.18;;
23322;SDS011;11833;52.554;13.554;2023-02-28T06:17:58;11.32;;;6.13;;
23322;SDS011;11833;52.554;13.554;2023-02-28T06:20:25;8.48;;;5.47;;
23322;SDS011;11833;52.554;13.554;2023-02-28T06:22:55;10.57;;;5.05;;
23322;SDS011;11833;52.554;13.554;2023-02-28T06:25:23;11.20;;;5.95;;
23322;SDS011;11833;52.554;13.554;2023-02-28T06:27:50;9.88;;;6.00;;
23322;SDS011;11833;52.554;13.554;2023-02-28T06:30:16;10.32;;;5.47;;
23322;SDS011;11833;52.554;13.554;2023-02-28T06:32:42;9.05;;;5.72;;
23322;SDS011;11833;52.554;13.554;2023-02-28T06:35:08;11.75;;;5.85;;
23322;SDS011;11833;52.554;13.554;2023-02-28T06:37:35;9.43;;;5.60;;
23322;SDS011;11833;52.554;13.554;2023-02-28T06:40:00;9.48;;;5.25;;
23322;SDS011;11833;52.554;13.554;2023-02-28T06:42:26;10.95;;;5.38;;
23322;SDS011;11833;52.554;13.554;2023-02-28T06:44:56;11.68;;;5.93;;
23322;SDS011;11833;52.554;13.554;2023-02-28T06:47:22;9.10;;;5.00;;
23322;SDS011;11833;52.554;13.554;2023-02-28T06:49:49;12.20;;;5.35;;
23322;SDS011;11833;52.554;13.554;2023-02-28T06:52:15;12.63;;;6.45;;
23322;SDS011;11833;52.554;13.554;2023-02-28T06:54:41;11.35;;;6.13;;
23322;SDS011;11833;52.554;13.554;2023-02-28T06:57:07;11.57;;;6.13;;
23322;SDS011;11833;52.554;13.554;2023-02-28T06:59:33;10.70;;;6.13;;
23322;SDS011;11833;52.554;13.554;2023-02-28T07:02:00;9.80;;;5.95;;
23322;SDS011;11833;52.554;13.554;2023-02-28T07:04:27;12.60;;;6.32;;
23322;SDS011;11833;52.554;13.554;2023-02-28T07:06:54;14.48;;;8.05;;
23322;SDS011;11833;52.554;13.554;2023-02-28T07:09:21;10.18;;;5.97;;
23322;SDS011;11833;52.554;13.554;2023-02-28T07:11:48;12.13;;;5.93;;
23322;SDS011;11833;52.554;13.554;2023-02-28T07:14:14;10.50;;;6.20;;
23322;SDS011;11833;52.554;13.554;2023-02-28T07:16:40;12.18;;;6.07;;
23322;SDS011;11833;52.554;13.554;2023-02-28T07:19:05;13.43;;;6.80;;
23322;SDS011;11833;52.554;13.554;2023-02-28T07:21:31;12.60;;;6.63;;
23322;SDS011;11833;52.554;13.554;2023-02-28T07:23:57;17.25;;;7.32;;
23322;SDS011;11833;52.554;13.554;2023-02-28T07:26:23;11.38;;;5.90;;
23322;SDS011;11833;52.554;13.554;2023-02-28T07:28:48;11.60;;;5.90;;
23322;SDS011;11833;52.554;13.554;2023-02-28T07:31:15;9.20;;;5.80;;
23322;SDS011;11833;52.554;13.554;2023-02-28T07:33:43;9.52;;;5.65;;
23322;SDS011;11833;52.554;13.554;2023-02-28T07:36:13;9.38;;;5.00;;
23322;SDS011;11833;52.554;13.554;2023-02-28T07:38:44;9.70;;;5.30;;
23322;SDS011;11833;52.554;13.554;2023-02-28T07:41:14;11.95;;;5.63;;
23322;SDS011;11833;52.554;13.554;2023-02-28T07:43:41;8.52;;;4.85;;
23322;SDS011;11833;52.554;13.554;2023-02-28T07:46:11;13.63;;;6.65;;
23322;SDS011;11833;52.554;13.554;2023-02-28T07:48:40;14.60;;;6.13;;
23322;SDS011;11833;52.554;13.554;2023-02-28T07:51:06;12.80;;;5.93;;
23322;SDS011;11833;52.554;13.554;2023-02-28T07:53:32;10.93;;;5.35;;
23322;SDS011;11833;52.554;13.554;2023-02-28T07:55:59;13.15;;;6.05;;
23322;SDS011;11833;52.554;13.554;2023-02-28T07:58:27;11.55;;;5.38;;
23322;SDS011;11833;52.554;13.554;2023-02-28T08:00:54;8.82;;;4.75;;
23322;SDS011;11833;52.554;13.554;2023-02-28T08:03:21;8.68;;;4.50;;
23322;SDS011;11833;52.554;13.554;2023-02-28T08:05:48;10.68;;;5.32;;
23322;SDS011;11833;52.554;13.554;2023-02-28T08:08:15;6.32;;;3.95;;
23322;SDS011;11833;52.554;13.554;2023-02-28T08:10:41;12.85;;;3.85;;
23322;SDS011;11833;52.554;13.554;2023-02-28T08:13:07;5.13;;;3.15;;
23322;SDS011;11833;52.554;13.554;2023-02-28T08:15:34;7.35;;;3.60;;
23322;SDS011;11833;52.554;13.554;2023-02-28T08:18:01;6.95;;;3.30;;
23322;SDS011;11833;52.554;13.554;2023-02-28T08:20:27;7.15;;;3.58;;
23322;SDS011;11833;52.554;13.554;2023-02-28T08:22:52;8.23;;;3.70;;
23322;SDS011;11833;52.554;13.554;2023-02-28T08:25:18;6.55;;;3.10;;
23322;SDS011;11833;52.554;13.554;2023-02-28T08:27:45;5.50;;;2.70;;
23322;SDS011;11833;52.554;13.554;2023-02-28T08:30:11;4.47;;;2.60;;
23322;SDS011;11833;52.554;13.554;2023-02-28T08:32:38;4.55;;;2.17;;
23322;SDS011;11833;52.554;13.554;2023-02-28T08:35:05;3.60;;;2.38;;
23322;SDS011;11833;52.554;13.554;2023-02-28T08:37:32;5.00;;;1.73;;
23322;SDS011;11833;52.554;13.554;2023-02-28T08:39:57;4.07;;;2.00;;
23322;SDS011;11833;52.554;13.554;2023-02-28T08:42:23;3.53;;;2.42;;
23322;SDS011;11833;52.554;13.554;2023-02-28T08:44:49;4.72;;;2.17;;
23322;SDS011;11833;52.554;13.554;2023-02-28T08:47:15;4.32;;;2.22;;
23322;SDS011;11833;52.554;13.554;2023-02-28T08:49:41;7.15;;;2.33;;
23322;SDS011;11833;52.554;13.554;2023-02-28T08:52:07;3.58;;;2.00;;
23322;SDS011;11833;52.554;13.554;2023-02-28T08:54:32;4.78;;;2.28;;
23322;SDS011;11833;52.554;13.554;2023-02-28T08:56:59;3.53;;;2.08;;
23322;SDS011;11833;52.554;13.554;2023-02-28T08:59:25;3.63;;;2.38;;
23322;SDS011;11833;52.554;13.554;2023-02-28T09:01:50;5.55;;;2.92;;
23322;SDS011;11833;52.554;13.554;2023-02-28T09:04:16;8.63;;;5.20;;
23322;SDS011;11833;52.554;13.554;2023-02-28T09:06:42;9.82;;;4.82;;
23322;SDS011;11833;52.554;13.554;2023-02-28T09:09:09;9.77;;;2.90;;
23322;SDS011;11833;52.554;13.554;2023-02-28T09:11:35;6.43;;;2.55;;
23322;SDS011;11833;52.554;13.554;2023-02-28T09:14:02;4.30;;;2.47;;
23322;SDS011;11833;52.554;13.554;2023-02-28T09:16:28;11.27;;;5.45;;
23322;SDS011;11833;52.554;13.554;2023-02-28T09:18:56;5.60;;;2.40;;
23322;SDS011;11833;52.554;13.554;2023-02-28T09:21:22;5.70;;;2.28;;
23322;SDS011;11833;52.554;13.554;2023-02-28T09:23:48;4.10;;;2.38;;
23322;SDS011;11833;52.554;13.554;2023-02-28T09:26:34;20.20;;;5.60;;
23322;SDS011;11833;52.554;13.554;2023-02-28T09:29:00;4.45;;;1.98;;
23322;SDS011;11833;52.554;13.554;2023-02-28T09:31:27;4.78;;;2.10;;
23322;SDS011;11833;52.554;13.554;2023-02-28T09:33:54;9.30;;;1.90;;
23322;SDS011;11833;52.554;13.554;2023-02-28T09:36:22;8.40;;;2.60;;
23322;SDS011;11833;52.554;13.554;2023-02-28T09:38:49;3.92;;;2.00;;
23322;SDS011;11833;52.554;13.554;2023-02-28T09:41:21;3.78;;;2.38;;
23322;SDS011;11833;52.554;13.554;2023-02-28T09:43:59;2.28;;;1.52;;
23322;SDS011;11833;52.554;13.554;2023-02-28T09:46:32;3.47;;;1.65;;
23322;SDS011;11833;52.554;13.554;2023-02-28T09:49:06;3.33;;;1.45;;
23322;SDS011;11833;52.554;13.554;2023-02-28T09:54:19;3.45;;;1.45;;
23322;SDS011;11833;52.554;13.554;2023-02-28T09:56:50;4.75;;;2.20;;
23322;SDS011;11833;52.554;13.554;2023-02-28T10:05:16;5.72;;;2.17;;
23322;SDS011;11833;52.554;13.554;2023-02-28T10:10:45;4.07;;;1.88;;
23322;SDS011;11833;52.554;13.554;2023-02-28T10:13:31;14.45;;;2.95;;
23322;SDS011;11833;52.554;13.554;2023-02-28T10:16:18;15.60;;;3.60;;
23322;SDS011;11833;52.554;13.554;2023-02-28T10:18:57;2.33;;;1.75;;
23322;SDS011;11833;52.554;13.554;2023-02-28T10:24:28;14.57;;;2.63;;
23322;SDS011;11833;52.554;13.554;2023-02-28T10:29:55;5.82;;;2.08;;
23322;SDS011;11833;52.554;13.554;2023-02-28T10:32:25;2.67;;;1.40;;
23322;SDS011;11833;52.554;13.554;2023-02-28T10:35:00;6.55;;;1.58;;
23322;SDS011;11833;52.554;13.554;2023-02-28T10:37:56;6.05;;;2.05;;
23322;SDS011;11833;52.554;13.554;2023-02-28T10:45:39;3.70;;;2.05;;
23322;SDS011;11833;52.554;13.554;2023-02-28T10:51:34;3.45;;;2.17;;
23322;SDS011;11833;52.554;13.554;2023-02-28T10:54:04;4.00;;;1.95;;
23322;SDS011;11833;52.554;13.554;2023-02-28T10:56:30;3.00;;;1.70;;
23322;SDS011;11833;52.554;13.554;2023-02-28T10:59:02;6.45;;;3.05;;
23322;SDS011;11833;52.554;13.554;2023-02-28T11:01:46;4.72;;;2.05;;
23322;SDS011;11833;52.554;13.554;2023-02-28T11:07:16;4.38;;;1.70;;
23322;SDS011;11833;52.554;13.554;2023-02-28T11:09:51;5.47;;;1.70;;
23322;SDS011;11833;52.554;13.554;2023-02-28T11:12:24;4.32;;;2.38;;
23322;SDS011;11833;52.554;13.554;2023-02-28T11:15:18;4.43;;;2.28;;
23322;SDS011;11833;52.554;13.554;2023-02-28T11:17:53;3.50;;;1.80;;
23322;SDS011;11833;52.554;13.554;2023-02-28T11:20:23;4.75;;;2.17;;
23322;SDS011;11833;52.554;13.554;2023-02-28T11:22:52;4.30;;;2.00;;
23322;SDS011;11833;52.554;13.554;2023-02-28T11:25:26;2.08;;;1.58;;
23322;SDS011;11833;52.554;13.554;2023-02-28T11:27:58;3.03;;;1.70;;
23322;SDS011;11833;52.554;13.554;2023-02-28T11:30:34;2.38;;;1.73;;
23322;SDS011;11833;52.554;13.554;2023-02-28T11:33:48;3.42;;;1.77;;
23322;SDS011;11833;52.554;13.554;2023-02-28T11:35:58;3.30;;;1.67;;
23322;SDS011;11833;52.554;13.554;2023-02-28T11:38:33;3.50;;;1.67;;
23322;SDS011;11833;52.554;13.554;2023-02-28T11:57:18;4.10;;;2.03;;
23322;SDS011;11833;52.554;13.554;2023-02-28T12:05:50;4.45;;;1.92;;
23322;SDS011;11833;52.554;13.554;2023-02-28T12:14:13;3.83;;;1.75;;
23322;SDS011;11833;52.554;13.554;2023-02-28T12:16:57;2.28;;;1.35;;
23322;SDS011;11833;52.554;13.554;2023-02-28T12:22:41;2.58;;;1.83;;
23322;SDS011;11833;52.554;13.554;2023-02-28T12:27:33;2.85;;;1.60;;
23322;SDS011;11833;52.554;13.554;2023-02-28T12:30:16;1.77;;;1.45;;
23322;SDS011;11833;52.554;13.554;2023-02-28T12:33:07;3.45;;;1.50;;
23322;SDS011;11833;52.554;13.554;2023-02-28T12:35:57;2.00;;;1.50;;
23322;SDS011;11833;52.554;13.554;2023-02-28T12:38:28;2.30;;;1.33;;
23322;SDS011;11833;52.554;13.554;2023-02-28T12:41:12;3.45;;;1.52;;
23322;SDS011;11833;52.554;13.554;2023-02-28T12:43:44;3.00;;;1.77;;
23322;SDS011;11833;52.554;13.554;2023-02-28T12:46:23;2.78;;;1.50;;
23322;SDS011;11833;52.554;13.554;2023-02-28T12:49:05;2.22;;;1.60;;
23322;SDS011;11833;52.554;13.554;2023-02-28T12:51:38;1.75;;;1.27;;
23322;SDS011;11833;52.554;13.554;2023-02-28T12:54:07;2.65;;;1.42;;
23322;SDS011;11833;52.554;13.554;2023-02-28T12:59:38;1.88;;;1.20;;
23322;SDS011;11833;52.554;13.554;2023-02-28T13:08:15;1.73;;;1.13;;
23322;SDS011;11833;52.554;13.554;2023-02-28T13:11:06;2.33;;;1.45;;
23322;SDS011;11833;52.554;13.554;2023-02-28T13:13:48;2.33;;;1.35;;
23322;SDS011;11833;52.554;13.554;2023-02-28T13:19:45;3.03;;;1.50;;
23322;SDS011;11833;52.554;13.554;2023-02-28T13:28:10;3.45;;;1.70;;
23322;SDS011;11833;52.554;13.554;2023-02-28T13:38:42;2.58;;;2.20;;
23322;SDS011;11833;52.554;13.554;2023-02-28T14:18:25;3.40;;;1.95;;
23322;SDS011;11833;52.554;13.554;2023-02-28T14:21:08;4.60;;;1.83;;
23322;SDS011;11833;52.554;13.554;2023-02-28T14:26:43;3.40;;;1.90;;
23322;SDS011;11833;52.554;13.554;2023-02-28T14:44:14;2.92;;;1.70;;
23322;SDS011;11833;52.554;13.554;2023-02-28T14:46:42;3.30;;;2.20;;
23322;SDS011;11833;52.554;13.554;2023-02-28T14:52:01;3.50;;;2.35;;
23322;SDS011;11833;52.554;13.554;2023-02-28T14:54:27;3.65;;;1.90;;
23322;SDS011;11833;52.554;13.554;2023-02-28T14:56:54;3.25;;;2.22;;
23322;SDS011;11833;52.554;13.554;2023-02-28T14:59:23;2.95;;;2.08;;
23322;SDS011;11833;52.554;13.554;2023-02-28T15:04:53;2.92;;;2.30;;
23322;SDS011;11833;52.554;13.554;2023-02-28T15:07:21;2.25;;;1.80;;
23322;SDS011;11833;52.554;13.554;2023-02-28T15:12:57;2.83;;;1.83;;
23322;SDS011;11833;52.554;13.554;2023-02-28T15:18:10;3.08;;;1.70;;
23322;SDS011;11833;52.554;13.554;2023-02-28T15:21:17;2.10;;;1.80;;
23322;SDS011;11833;52.554;13.554;2023-02-28T15:24:01;3.63;;;1.95;;
23322;SDS011;11833;52.554;13.554;2023-02-28T15:26:56;3.65;;;2.05;;
23322;SDS011;11833;52.554;13.554;2023-02-28T15:29:26;3.30;;;2.45;;
23322;SDS011;11833;52.554;13.554;2023-02-28T15:40:04;4.95;;;3.42;;
23322;SDS011;11833;52.554;13.554;2023-02-28T15:42:36;4.55;;;2.33;;
23322;SDS011;11833;52.554;13.554;2023-02-28T15:45:02;3.22;;;2.10;;
23322;SDS011;11833;52.554;13.554;2023-02-28T15:47:29;4.85;;;2.17;;
23322;SDS011;11833;52.554;13.554;2023-02-28T15:50:04;5.63;;;2.53;;
23322;SDS011;11833;52.554;13.554;2023-02-28T15:52:38;4.43;;;2.00;;
23322;SDS011;11833;52.554;13.554;2023-02-28T15:57:46;3.55;;;2.17;;
23322;SDS011;11833;52.554;13.554;2023-02-28T16:00:18;4.60;;;1.70;;
23322;SDS011;11833;52.554;13.554;2023-02-28T16:02:47;3.78;;;2.00;;
23322;SDS011;11833;52.554;13.554;2023-02-28T16:08:13;2.45;;;2.08;;
23322;SDS011;11833;52.554;13.554;2023-02-28T16:10:40;2.67;;;2.13;;
23322;SDS011;11833;52.554;13.554;2023-02-28T16:13:08;3.72;;;2.25;;
23322;SDS011;11833;52.554;13.554;2023-02-28T16:15:38;4.60;;;2.90;;
23322;SDS011;11833;52.554;13.554;2023-02-28T16:18:08;3.65;;;2.47;;
23322;SDS011;11833;52.554;13.554;2023-02-28T16:20:37;3.05;;;2.00;;
23322;SDS011;11833;52.554;13.554;2023-02-28T16:23:03;3.58;;;2.13;;
23322;SDS011;11833;52.554;13.554;2023-02-28T16:25:37;6.10;;;3.00;;
23322;SDS011;11833;52.554;13.554;2023-02-28T16:28:08;5.90;;;2.65;;
23322;SDS011;11833;52.554;13.554;2023-02-28T16:30:44;5.97;;;2.60;;
23322;SDS011;11833;52.554;13.554;2023-02-28T16:33:10;4.43;;;2.58;;
23322;SDS011;11833;52.554;13.554;2023-02-28T16:35:36;9.57;;;3.08;;
23322;SDS011;11833;52.554;13.554;2023-02-28T16:38:02;9.10;;;3.10;;
23322;SDS011;11833;52.554;13.554;2023-02-28T16:40:29;5.13;;;2.60;;
23322;SDS011;11833;52.554;13.554;2023-02-28T16:43:00;5.30;;;2.85;;
23322;SDS011;11833;52.554;13.554;2023-02-28T16:45:31;3.35;;;2.25;;
23322;SDS011;11833;52.554;13.554;2023-02-28T16:47:56;7.40;;;3.10;;
23322;SDS011;11833;52.554;13.554;2023-02-28T16:50:24;6.40;;;2.80;;
23322;SDS011;11833;52.554;13.554;2023-02-28T16:52:52;4.18;;;2.65;;
23322;SDS011;11833;52.554;13.554;2023-02-28T16:55:19;5.70;;;2.50;;
23322;SDS011;11833;52.554;13.554;2023-02-28T16:57:56;3.38;;;2.80;;
23322;SDS011;11833;52.554;13.554;2023-02-28T17:00:24;5.60;;;2.63;;
23322;SDS011;11833;52.554;13.554;2023-02-28T17:02:53;4.80;;;3.10;;
23322;SDS011;11833;52.554;13.554;2023-02-28T17:05:19;3.90;;;2.60;;
23322;SDS011;11833;52.554;13.554;2023-02-28T17:07:46;4.75;;;2.97;;
23322;SDS011;11833;52.554;13.554;2023-02-28T17:10:19;6.72;;;3.00;;
23322;SDS011;11833;52.554;13.554;2023-02-28T17:12:48;11.50;;;4.00;;
23322;SDS011;11833;52.554;13.554;2023-02-28T17:15:15;8.27;;;3.10;;
23322;SDS011;11833;52.554;13.554;2023-02-28T17:17:43;6.35;;;3.58;;
23322;SDS011;11833;52.554;13.554;2023-02-28T17:20:12;9.50;;;4.28;;
23322;SDS011;11833;52.554;13.554;2023-02-28T17:22:43;7.20;;;3.78;;
23322;SDS011;11833;52.554;13.554;2023-02-28T17:25:09;6.88;;;3.55;;
23322;SDS011;11833;52.554;13.554;2023-02-28T17:27:36;5.90;;;2.97;;
23322;SDS011;11833;52.554;13.554;2023-02-28T17:30:08;7.53;;;3.55;;
23322;SDS011;11833;52.554;13.554;2023-02-28T17:32:44;7.25;;;3.95;;
23322;SDS011;11833;52.554;13.554;2023-02-28T17:35:10;8.45;;;4.97;;
23322;SDS011;11833;52.554;13.554;2023-02-28T17:37:35;7.55;;;3.58;;
23322;SDS011;11833;52.554;13.554;2023-02-28T17:40:02;7.00;;;3.72;;
23322;SDS011;11833;52.554;13.554;2023-02-28T17:42:28;5.05;;;3.50;;
23322;SDS011;11833;52.554;13.554;2023-02-28T17:44:54;7.90;;;4.05;;
23322;SDS011;11833;52.554;13.554;2023-02-28T17:47:20;5.93;;;3.13;;
23322;SDS011;11833;52.554;13.554;2023-02-28T17:49:45;9.18;;;4.65;;
23322;SDS011;11833;52.554;13.554;2023-02-28T17:52:11;6.45;;;3.60;;
23322;SDS011;11833;52.554;13.554;2023-02-28T17:54:37;7.75;;;4.70;;
23322;SDS011;11833;52.554;13.554;2023-02-28T17:57:02;10.00;;;4.75;;
23322;SDS011;11833;52.554;13.554;2023-02-28T17:59:28;6.93;;;4.40;;
23322;SDS011;11833;52.554;13.554;2023-02-28T18:01:59;7.45;;;4.20;;
23322;SDS011;11833;52.554;13.554;2023-02-28T18:04:25;7.28;;;3.85;;
23322;SDS011;11833;52.554;13.554;2023-02-28T18:06:51;12.55;;;6.28;;
23322;SDS011;11833;52.554;13.554;2023-02-28T18:09:19;7.20;;;4.45;;
23322;SDS011;11833;52.554;13.554;2023-02-28T18:11:51;6.10;;;4.22;;
23322;SDS011;11833;52.554;13.554;2023-02-28T18:14:20;6.18;;;4.00;;
23322;SDS011;11833;52.554;13.554;2023-02-28T18:16:49;6.82;;;4.18;;
23322;SDS011;11833;52.554;13.554;2023-02-28T18:19:16;9.93;;;5.88;;
23322;SDS011;11833;52.554;13.554;2023-02-28T18:21:46;8.88;;;4.65;;
23322;SDS011;11833;52.554;13.554;2023-02-28T18:24:15;8.20;;;5.13;;
23322;SDS011;11833;52.554;13.554;2023-02-28T18:26:43;7.95;;;5.15;;
23322;SDS011;11833;52.554;13.554;2023-02-28T18:29:13;9.25;;;5.50;;
23322;SDS011;11833;52.554;13.554;2023-02-28T18:31:42;10.15;;;5.82;;
23322;SDS011;11833;52.554;13.554;2023-02-28T18:34:08;11.23;;;6.13;;
23322;SDS011;11833;52.554;13.554;2023-02-28T18:36:34;10.18;;;5.20;;
23322;SDS011;11833;52.554;13.554;2023-02-28T18:39:00;9.75;;;4.82;;
23322;SDS011;11833;52.554;13.554;2023-02-28T18:41:25;26.00;;;13.63;;
23322;SDS011;11833;52.554;13.554;2023-02-28T18:43:53;12.07;;;6.00;;
23322;SDS011;11833;52.554;13.554;2023-02-28T18:46:19;11.07;;;6.40;;
23322;SDS011;11833;52.554;13.554;2023-02-28T18:48:45;10.98;;;5.65;;
23322;SDS011;11833;52.554;13.554;2023-02-28T18:51:18;15.77;;;8.57;;
23322;SDS011;11833;52.554;13.554;2023-02-28T18:53:48;16.80;;;8.48;;
23322;SDS011;11833;52.554;13.554;2023-02-28T18:56:16;9.35;;;5.50;;
23322;SDS011;11833;52.554;13.554;2023-02-28T18:58:44;9.88;;;5.65;;
23322;SDS011;11833;52.554;13.554;2023-02-28T19:01:15;11.07;;;5.40;;
23322;SDS011;11833;52.554;13.554;2023-02-28T19:03:47;8.93;;;4.50;;
23322;SDS011;11833;52.554;13.554;2023-02-28T19:06:14;10.85;;;5.07;;
23322;SDS011;11833;52.554;13.554;2023-02-28T19:08:42;15.80;;;6.70;;